createdAt,value
2024-01-17T00:02:07.969Z,-0.90
2024-01-17T00:04:34.626Z,-0.85
2024-01-17T00:07:01.433Z,-0.86
2024-01-17T00:09:29.441Z,-0.78
2024-01-17T00:11:55.912Z,-0.75
2024-01-17T00:14:22.654Z,-0.90
2024-01-17T00:16:49.291Z,-0.81
2024-01-17T00:19:16.004Z,-0.76
2024-01-17T00:21:43.433Z,-0.78
2024-01-17T00:24:10.275Z,-0.76
2024-01-17T00:26:38.299Z,-0.79
2024-01-17T00:29:04.733Z,-0.81
2024-01-17T00:31:31.329Z,-0.84
2024-01-17T00:33:58.016Z,-0.83
2024-01-17T00:36:24.868Z,-0.79
2024-01-17T00:38:51.540Z,-0.84
2024-01-17T00:41:18.369Z,-0.90
2024-01-17T00:43:46.569Z,-0.86
2024-01-17T00:46:13.277Z,-0.83
2024-01-17T00:48:40.019Z,-0.90
2024-01-17T00:51:06.827Z,-0.84
2024-01-17T00:53:33.569Z,-0.88
2024-01-17T00:56:00.357Z,-0.89
2024-01-17T00:58:27.040Z,-0.88
2024-01-17T01:00:55.042Z,-0.85
2024-01-17T01:03:21.729Z,-0.89
2024-01-17T01:05:48.498Z,-0.87
2024-01-17T01:08:15.147Z,-0.81
2024-01-17T01:10:42.447Z,-0.77
2024-01-17T01:13:09.052Z,-0.80
2024-01-17T01:15:35.649Z,-0.79
2024-01-17T01:18:04.109Z,-0.84
2024-01-17T01:20:30.950Z,-0.85
2024-01-17T01:22:57.647Z,-0.80
2024-01-17T01:25:24.224Z,-0.72
2024-01-17T01:27:50.833Z,-0.73
2024-01-17T01:30:17.554Z,-0.71
2024-01-17T01:32:44.352Z,-0.82
2024-01-17T01:35:12.367Z,-0.72
2024-01-17T01:37:38.998Z,-0.61
2024-01-17T01:40:08.509Z,-0.66
2024-01-17T01:42:35.575Z,-0.74
2024-01-17T01:45:02.473Z,-0.80
2024-01-17T01:47:29.235Z,-0.78
2024-01-17T01:49:55.872Z,-0.73
2024-01-17T01:52:24.024Z,-0.72
2024-01-17T01:54:50.666Z,-0.74
2024-01-17T01:57:17.759Z,-0.80
2024-01-17T01:59:46.863Z,-0.88
2024-01-17T02:02:13.765Z,-0.96
2024-01-17T02:04:40.789Z,-0.81
2024-01-17T02:07:08.866Z,-0.71
2024-01-17T02:09:36.958Z,-0.67
2024-01-17T02:12:04.358Z,-0.73
2024-01-17T02:14:31.027Z,-0.64
2024-01-17T02:16:57.660Z,-0.78
2024-01-17T02:19:24.362Z,-0.86
2024-01-17T02:21:50.990Z,-0.84
2024-01-17T02:24:22.074Z,-0.79
2024-01-17T02:26:48.788Z,-0.78
2024-01-17T02:29:15.466Z,-0.92
2024-01-17T02:31:42.859Z,-1.00
2024-01-17T02:34:09.843Z,-1.04
2024-01-17T02:36:36.589Z,-1.07
2024-01-17T02:39:03.296Z,-1.05
2024-01-17T02:41:31.302Z,-1.11
2024-01-17T02:43:57.740Z,-1.11
2024-01-17T02:46:27.484Z,-1.08
2024-01-17T02:48:54.145Z,-1.21
2024-01-17T02:51:20.897Z,-1.16
2024-01-17T02:53:47.542Z,-1.16
2024-01-17T02:56:15.431Z,-1.09
2024-01-17T02:58:43.243Z,-1.01
2024-01-17T03:01:10.033Z,-1.10
2024-01-17T03:03:36.806Z,-1.08
2024-01-17T03:06:03.669Z,-1.10
2024-01-17T03:08:30.525Z,-1.08
2024-01-17T03:10:57.224Z,-1.12
2024-01-17T03:13:23.797Z,-1.03
2024-01-17T03:15:51.724Z,-1.05
2024-01-17T03:18:18.842Z,-1.09
2024-01-17T03:20:45.634Z,-1.05
2024-01-17T03:23:12.233Z,-1.03
2024-01-17T03:25:38.823Z,-1.02
2024-01-17T03:28:05.683Z,-1.10
2024-01-17T03:30:33.885Z,-1.36
2024-01-17T03:33:01.981Z,-1.29
2024-01-17T03:35:28.796Z,-1.26
2024-01-17T03:37:56.582Z,-1.30
2024-01-17T03:40:23.247Z,-1.35
2024-01-17T03:42:49.828Z,-1.28
2024-01-17T03:45:16.646Z,-1.47
2024-01-17T03:47:43.329Z,-1.43
2024-01-17T03:50:11.409Z,-1.39
2024-01-17T03:52:38.024Z,-1.60
2024-01-17T03:55:05.251Z,-1.31
2024-01-17T03:57:32.918Z,-1.45
2024-01-17T03:59:59.640Z,-1.42
2024-01-17T04:02:26.655Z,-1.37
2024-01-17T04:04:53.364Z,-1.34
2024-01-17T04:07:23.448Z,-1.26
2024-01-17T04:09:50.241Z,-1.28
2024-01-17T04:12:16.926Z,-1.33
2024-01-17T04:14:43.752Z,-1.39
2024-01-17T04:17:11.589Z,-1.36
2024-01-17T04:19:38.260Z,-1.27
2024-01-17T04:22:05.031Z,-1.19
2024-01-17T04:24:32.964Z,-1.28
2024-01-17T04:26:59.414Z,-1.25
2024-01-17T04:29:26.046Z,-1.28
2024-01-17T04:31:54.130Z,-1.33
2024-01-17T04:34:21.105Z,-1.31
2024-01-17T04:36:48.114Z,-1.38
2024-01-17T04:39:16.206Z,-1.23
2024-01-17T04:41:44.535Z,-1.18
2024-01-17T04:44:11.345Z,-1.10
2024-01-17T04:46:38.254Z,-1.11
2024-01-17T04:49:05.209Z,-1.39
2024-01-17T04:51:31.914Z,-1.46
2024-01-17T04:53:59.683Z,-1.37
2024-01-17T04:56:27.002Z,-1.33
2024-01-17T04:58:55.212Z,-1.39
2024-01-17T05:01:21.898Z,-1.36
2024-01-17T05:03:48.656Z,-1.31
2024-01-17T05:06:15.437Z,-1.51
2024-01-17T05:08:42.380Z,-1.57
2024-01-17T05:11:09.012Z,-1.67
2024-01-17T05:13:35.697Z,-1.59
2024-01-17T05:16:04.006Z,-1.58
2024-01-17T05:18:31.401Z,-1.59
2024-01-17T05:20:58.273Z,-1.47
2024-01-17T05:23:24.874Z,-1.49
2024-01-17T05:25:51.556Z,-1.58
2024-01-17T05:28:18.122Z,-1.41
2024-01-17T05:30:44.811Z,-1.38
2024-01-17T05:33:12.876Z,-1.24
2024-01-17T05:35:42.254Z,-1.11
2024-01-17T05:38:08.853Z,-1.07
2024-01-17T05:40:35.482Z,-1.23
2024-01-17T05:43:02.525Z,-1.33
2024-01-17T05:45:29.159Z,-1.18
2024-01-17T05:47:55.943Z,-1.14
2024-01-17T05:50:23.997Z,-1.18
2024-01-17T05:52:50.699Z,-1.21
2024-01-17T05:55:17.466Z,-1.16
2024-01-17T05:57:44.334Z,-1.23
2024-01-17T06:00:12.514Z,-1.22
2024-01-17T06:02:41.222Z,-1.26
2024-01-17T06:05:11.605Z,-1.35
2024-01-17T06:07:43.888Z,-1.37
2024-01-17T06:10:14.165Z,-1.37
2024-01-17T06:12:41.128Z,-1.20
2024-01-17T06:15:08.836Z,-1.12
2024-01-17T06:17:35.608Z,-1.21
2024-01-17T06:20:02.406Z,-1.19
2024-01-17T06:22:29.051Z,-1.22
2024-01-17T06:24:57.614Z,-1.18
2024-01-17T06:27:24.509Z,-1.13
2024-01-17T06:29:52.497Z,-1.08
2024-01-17T06:32:19.507Z,-1.13
2024-01-17T06:34:46.133Z,-1.13
2024-01-17T06:37:12.888Z,-1.11
2024-01-17T06:39:40.026Z,-1.05
2024-01-17T06:42:08.230Z,-1.17
2024-01-17T06:44:35.052Z,-1.00
2024-01-17T06:47:01.712Z,-0.88
2024-01-17T06:49:28.504Z,-0.98
2024-01-17T06:51:56.131Z,-0.92
2024-01-17T06:54:22.764Z,-0.82
2024-01-17T06:56:49.509Z,-0.78
2024-01-17T06:59:20.163Z,-0.72
2024-01-17T07:01:46.970Z,-0.80
2024-01-17T07:04:13.805Z,-0.65
2024-01-17T07:06:40.580Z,-0.68
2024-01-17T07:09:09.461Z,-0.72
2024-01-17T07:11:36.639Z,-0.69
2024-01-17T07:14:04.230Z,-0.83
2024-01-17T07:16:32.402Z,-0.82
2024-01-17T07:18:59.925Z,-0.85
2024-01-17T07:21:26.903Z,-0.84
2024-01-17T07:23:54.080Z,-0.83
2024-01-17T07:26:20.726Z,-0.94
2024-01-17T07:28:47.303Z,-0.69
2024-01-17T07:31:13.950Z,-0.60
2024-01-17T07:33:42.044Z,-0.58
2024-01-17T07:36:09.071Z,-0.53
2024-01-17T07:38:35.817Z,-0.63
2024-01-17T07:41:02.997Z,-0.64
2024-01-17T07:43:29.653Z,-0.80
2024-01-17T07:45:56.899Z,-0.73
2024-01-17T07:48:23.697Z,-0.60
2024-01-17T07:50:51.897Z,-0.56
2024-01-17T07:53:18.557Z,-0.73
2024-01-17T07:55:45.112Z,-0.70
2024-01-17T07:58:13.054Z,-0.59
2024-01-17T08:00:40.016Z,-0.58
2024-01-17T08:03:08.262Z,-0.51
2024-01-17T08:05:35.302Z,-0.60
2024-01-17T08:08:04.068Z,-0.53
2024-01-17T08:10:31.341Z,-0.43
2024-01-17T08:12:57.908Z,-0.49
2024-01-17T08:15:24.492Z,-0.54
2024-01-17T08:17:51.691Z,-0.26
2024-01-17T08:20:18.546Z,-0.18
2024-01-17T08:22:45.433Z,-0.14
2024-01-17T08:25:14.159Z,-0.11
2024-01-17T08:27:41.117Z,-0.09
2024-01-17T08:30:12.002Z,-0.10
2024-01-17T08:32:39.264Z,0.06
2024-01-17T08:35:08.027Z,0.25
2024-01-17T08:37:35.707Z,0.02
2024-01-17T08:40:02.291Z,-0.08
2024-01-17T08:42:30.236Z,0.01
2024-01-17T08:44:56.919Z,-0.08
2024-01-17T08:47:23.642Z,0.13
2024-01-17T08:49:50.921Z,0.25
2024-01-17T08:52:17.564Z,0.17
2024-01-17T08:54:44.110Z,0.14
2024-01-17T08:57:11.031Z,0.17
2024-01-17T08:59:39.128Z,0.08
2024-01-17T09:02:05.878Z,0.25
2024-01-17T09:04:33.600Z,0.39
2024-01-17T09:07:00.499Z,0.32
2024-01-17T09:09:27.458Z,0.33
2024-01-17T09:11:56.973Z,0.28
2024-01-17T09:14:25.664Z,0.43
2024-01-17T09:16:54.384Z,0.49
2024-01-17T09:19:24.742Z,0.21
2024-01-17T09:21:53.906Z,0.41
2024-01-17T09:24:22.032Z,0.28
2024-01-17T09:26:52.678Z,0.64
2024-01-17T09:29:19.932Z,0.85
2024-01-17T09:31:47.059Z,1.04
2024-01-17T09:34:15.106Z,1.14
2024-01-17T09:36:41.809Z,1.06
2024-01-17T09:39:08.495Z,1.00
2024-01-17T09:41:35.306Z,1.12
2024-01-17T09:44:02.006Z,0.90
2024-01-17T09:46:29.886Z,1.00
2024-01-17T09:48:56.705Z,1.00
2024-01-17T09:51:26.826Z,1.12
2024-01-17T09:53:54.672Z,1.21
2024-01-17T09:56:23.086Z,1.26
2024-01-17T09:58:52.076Z,1.21
2024-01-17T10:01:20.860Z,1.20
2024-01-17T10:03:47.866Z,1.05
2024-01-17T10:06:16.711Z,1.12
2024-01-17T10:08:45.221Z,1.16
2024-01-17T10:11:11.827Z,1.14
2024-01-17T10:13:38.589Z,1.17
2024-01-17T10:16:05.775Z,1.14
2024-01-17T10:18:32.652Z,1.10
2024-01-17T10:20:59.633Z,1.17
2024-01-17T10:23:27.693Z,1.15
2024-01-17T10:25:55.985Z,1.23
2024-01-17T10:28:23.210Z,1.46
2024-01-17T10:30:49.782Z,1.23
2024-01-17T10:33:16.534Z,1.39
2024-01-17T10:35:43.292Z,1.21
2024-01-17T10:38:09.931Z,1.33
2024-01-17T10:40:36.566Z,1.58
2024-01-17T10:43:11.356Z,1.72
2024-01-17T10:45:40.766Z,1.80
2024-01-17T10:48:07.954Z,1.81
2024-01-17T10:50:34.762Z,1.75
2024-01-17T10:53:04.525Z,1.64
2024-01-17T10:55:34.504Z,1.75
2024-01-17T10:58:01.673Z,1.63
2024-01-17T11:00:33.256Z,1.63
2024-01-17T11:03:01.486Z,1.82
2024-01-17T11:05:33.362Z,2.05
2024-01-17T11:08:00.933Z,1.98
2024-01-17T11:10:28.199Z,1.80
2024-01-17T11:12:56.239Z,1.94
2024-01-17T11:15:23.811Z,2.23
2024-01-17T11:17:54.891Z,2.23
2024-01-17T11:20:21.510Z,2.25
2024-01-17T11:22:50.562Z,2.08
2024-01-17T11:25:21.986Z,2.14
2024-01-17T11:27:52.104Z,2.20
2024-01-17T11:30:30.038Z,2.32
2024-01-17T11:33:05.611Z,2.04
2024-01-17T11:35:41.519Z,2.12
2024-01-17T11:38:12.043Z,1.81
2024-01-17T11:40:38.817Z,1.72
2024-01-17T11:43:05.901Z,2.02
2024-01-17T11:45:32.634Z,2.03
2024-01-17T11:48:12.447Z,1.98
2024-01-17T11:50:39.443Z,1.84
2024-01-17T11:53:06.218Z,1.87
2024-01-17T11:55:33.602Z,1.84
2024-01-17T11:58:01.771Z,1.92
2024-01-17T12:00:28.734Z,1.87
2024-01-17T12:03:00.834Z,2.08
2024-01-17T12:05:28.975Z,2.16
2024-01-17T12:07:55.824Z,2.19
2024-01-17T12:10:22.644Z,1.88
2024-01-17T12:12:49.195Z,1.79
2024-01-17T12:15:15.999Z,1.83
2024-01-17T12:17:45.308Z,1.65
2024-01-17T12:20:12.899Z,1.80
2024-01-17T12:22:41.031Z,1.82
2024-01-17T12:25:09.353Z,1.99
2024-01-17T12:27:35.916Z,1.95
2024-01-17T12:30:02.845Z,2.02
2024-01-17T12:32:29.580Z,2.16
2024-01-17T12:34:56.276Z,2.03
2024-01-17T12:37:23.046Z,1.88
2024-01-17T12:39:50.994Z,1.92
2024-01-17T12:42:18.079Z,1.84
2024-01-17T12:44:45.798Z,1.79
2024-01-17T12:47:12.419Z,2.01
2024-01-17T12:49:39.050Z,1.91
2024-01-17T12:52:05.829Z,2.01
2024-01-17T12:54:32.521Z,1.77
2024-01-17T12:57:00.532Z,1.83
2024-01-17T12:59:27.118Z,1.73
2024-01-17T13:01:58.702Z,1.82
2024-01-17T13:04:25.321Z,1.82
2024-01-17T13:06:53.093Z,1.98
2024-01-17T13:09:22.750Z,2.04
2024-01-17T13:11:51.247Z,2.08
2024-01-17T13:14:19.877Z,2.17
2024-01-17T13:16:46.960Z,2.28
2024-01-17T13:19:15.363Z,2.19
2024-01-17T13:21:42.421Z,2.07
2024-01-17T13:24:09.861Z,2.42
2024-01-17T13:26:37.304Z,2.50
2024-01-17T13:29:05.673Z,2.54
2024-01-17T13:31:34.683Z,2.45
2024-01-17T13:34:04.651Z,2.10
2024-01-17T13:36:32.043Z,2.19
2024-01-17T13:38:58.861Z,2.47
2024-01-17T13:41:27.221Z,2.31
2024-01-17T13:43:54.423Z,2.34
2024-01-17T13:46:21.120Z,2.24
2024-01-17T13:48:49.733Z,2.46
2024-01-17T13:51:18.184Z,2.32
2024-01-17T13:53:45.162Z,2.24
2024-01-17T13:56:11.978Z,2.28
2024-01-17T13:58:38.956Z,2.11
2024-01-17T14:01:06.985Z,2.36
2024-01-17T14:03:34.804Z,2.43
2024-01-17T14:06:03.258Z,2.42
2024-01-17T14:08:30.678Z,2.45
2024-01-17T14:10:57.756Z,2.45
2024-01-17T14:13:24.470Z,2.49
2024-01-17T14:15:51.274Z,2.09
2024-01-17T14:18:18.684Z,2.09
2024-01-17T14:20:45.487Z,2.17
2024-01-17T14:23:13.949Z,2.29
2024-01-17T14:25:40.521Z,2.17
2024-01-17T14:28:08.804Z,2.01
2024-01-17T14:30:35.723Z,2.10
2024-01-17T14:33:05.392Z,2.11
2024-01-17T14:35:35.150Z,1.88
2024-01-17T14:38:03.935Z,1.86
2024-01-17T14:40:31.872Z,2.01
2024-01-17T14:42:59.133Z,2.03
2024-01-17T14:45:25.862Z,2.05
2024-01-17T14:47:52.587Z,1.92
2024-01-17T14:50:19.328Z,1.98
2024-01-17T14:52:46.784Z,2.08
2024-01-17T14:55:13.757Z,1.90
2024-01-17T14:57:41.947Z,2.14
2024-01-17T15:00:19.187Z,2.10
2024-01-17T15:02:47.293Z,1.94
2024-01-17T15:05:14.441Z,1.77
2024-01-17T15:07:42.059Z,1.88
2024-01-17T15:10:11.805Z,2.02
2024-01-17T15:12:38.479Z,2.04
2024-01-17T15:15:08.561Z,2.01
2024-01-17T15:17:36.188Z,1.92
2024-01-17T15:20:03.158Z,1.73
2024-01-17T15:22:31.441Z,1.89
2024-01-17T15:24:58.480Z,1.88
2024-01-17T15:27:25.201Z,1.77
2024-01-17T15:29:52.841Z,1.85
2024-01-17T15:32:21.019Z,1.92
2024-01-17T15:34:50.984Z,1.76
2024-01-17T15:37:18.329Z,1.94
2024-01-17T15:39:49.489Z,1.94
2024-01-17T15:42:17.268Z,1.82
2024-01-17T15:44:44.084Z,1.79
2024-01-17T15:47:10.750Z,1.83
2024-01-17T15:49:38.739Z,1.81
2024-01-17T15:52:05.931Z,1.86
2024-01-17T15:54:32.604Z,1.76
2024-01-17T15:56:59.268Z,1.48
2024-01-17T15:59:25.927Z,1.74
2024-01-17T16:01:52.997Z,1.55
2024-01-17T16:04:19.596Z,1.49
2024-01-17T16:06:47.664Z,1.90
2024-01-17T16:09:14.859Z,1.88
2024-01-17T16:11:41.636Z,1.91
2024-01-17T16:14:08.368Z,1.82
2024-01-17T16:16:35.086Z,1.81
2024-01-17T16:19:02.685Z,1.84
2024-01-17T16:21:29.892Z,1.84
2024-01-17T16:23:59.886Z,1.85
2024-01-17T16:26:26.635Z,1.78
2024-01-17T16:28:53.260Z,1.81
2024-01-17T16:31:19.816Z,1.81
2024-01-17T16:33:46.641Z,1.83
2024-01-17T16:36:14.480Z,1.76
2024-01-17T16:38:41.779Z,1.83
2024-01-17T16:41:11.057Z,1.83
2024-01-17T16:43:37.967Z,1.78
2024-01-17T16:46:05.213Z,1.95
2024-01-17T16:48:34.125Z,1.98
2024-01-17T16:51:03.468Z,1.94
2024-01-17T16:53:31.447Z,2.00
2024-01-17T16:55:58.084Z,1.96
2024-01-17T16:58:26.068Z,1.98
2024-01-17T17:00:55.648Z,1.94
2024-01-17T17:03:23.415Z,1.95
2024-01-17T17:05:51.696Z,1.88
2024-01-17T17:08:20.360Z,1.94
2024-01-17T17:10:46.937Z,1.92
2024-01-17T17:13:13.560Z,1.92
2024-01-17T17:15:41.760Z,1.98
2024-01-17T17:18:12.818Z,2.01
2024-01-17T17:20:40.424Z,1.93
2024-01-17T17:23:07.471Z,2.01
2024-01-17T17:25:34.300Z,1.93
2024-01-17T17:28:00.849Z,1.92
2024-01-17T17:30:27.552Z,1.84
2024-01-17T17:32:55.624Z,1.65
2024-01-17T17:35:22.272Z,1.68
2024-01-17T17:37:48.944Z,1.66
2024-01-17T17:40:15.767Z,1.74
2024-01-17T17:42:42.575Z,1.93
2024-01-17T17:45:10.548Z,1.98
2024-01-17T17:47:37.297Z,2.02
2024-01-17T17:50:11.998Z,1.97
2024-01-17T17:52:38.652Z,1.85
2024-01-17T17:55:06.271Z,1.93
2024-01-17T17:57:32.923Z,2.01
2024-01-17T17:59:59.990Z,2.06
2024-01-17T18:02:26.812Z,2.06
2024-01-17T18:04:53.410Z,1.98
2024-01-17T18:07:21.319Z,2.06
2024-01-17T18:09:49.600Z,2.08
2024-01-17T18:12:17.249Z,1.95
2024-01-17T18:14:43.947Z,2.05
2024-01-17T18:17:13.017Z,1.94
2024-01-17T18:19:39.704Z,1.91
2024-01-17T18:22:06.329Z,1.99
2024-01-17T18:24:34.389Z,1.96
2024-01-17T18:27:01.057Z,2.04
2024-01-17T18:29:28.032Z,2.07
2024-01-17T18:31:54.663Z,2.08
2024-01-17T18:34:23.875Z,2.13
2024-01-17T18:36:50.583Z,2.15
2024-01-17T18:39:18.862Z,2.09
2024-01-17T18:41:46.889Z,2.16
2024-01-17T18:44:13.427Z,2.18
2024-01-17T18:46:41.855Z,2.15
2024-01-17T18:49:08.667Z,2.17
2024-01-17T18:51:35.716Z,2.19
2024-01-17T18:54:02.384Z,2.05
2024-01-17T18:56:31.248Z,2.12
2024-01-17T18:59:00.218Z,2.15
2024-01-17T19:01:32.317Z,2.11
2024-01-17T19:03:59.031Z,2.04
2024-01-17T19:06:28.451Z,1.99
2024-01-17T19:08:55.521Z,2.01
2024-01-17T19:11:22.315Z,1.97
2024-01-17T19:13:49.119Z,2.03
2024-01-17T19:16:17.129Z,2.10
2024-01-17T19:18:44.007Z,2.10
2024-01-17T19:21:10.847Z,2.10
2024-01-17T19:23:38.672Z,2.13
2024-01-17T19:26:07.852Z,2.15
2024-01-17T19:28:34.440Z,2.10
2024-01-17T19:31:01.061Z,2.07
2024-01-17T19:33:32.328Z,1.98
2024-01-17T19:35:59.007Z,1.90
2024-01-17T19:38:26.516Z,1.83
2024-01-17T19:40:53.329Z,1.96
2024-01-17T19:43:19.997Z,1.95
2024-01-17T19:45:46.630Z,1.85
2024-01-17T19:48:13.488Z,1.86
2024-01-17T19:50:43.823Z,1.75
2024-01-17T19:53:10.462Z,1.82
2024-01-17T19:55:37.046Z,1.92
2024-01-17T19:58:03.958Z,1.94
2024-01-17T20:00:31.889Z,2.06
2024-01-17T20:02:59.032Z,1.96
2024-01-17T20:05:28.634Z,1.85
2024-01-17T20:07:56.549Z,1.75
2024-01-17T20:10:23.192Z,1.85
2024-01-17T20:12:50.341Z,1.94
2024-01-17T20:15:18.716Z,1.99
2024-01-17T20:17:45.446Z,2.05
2024-01-17T20:20:12.439Z,1.90
2024-01-17T20:22:39.013Z,1.80
2024-01-17T20:25:14.613Z,1.92
2024-01-17T20:27:41.753Z,2.01
2024-01-17T20:30:09.394Z,2.07
2024-01-17T20:32:36.854Z,2.06
2024-01-17T20:35:04.049Z,2.02
2024-01-17T20:37:30.748Z,2.03
2024-01-17T20:39:57.301Z,2.03
2024-01-17T20:42:25.364Z,2.04
2024-01-17T20:44:52.045Z,1.98
2024-01-17T20:47:18.689Z,2.00
2024-01-17T20:49:46.429Z,1.99
2024-01-17T20:52:13.538Z,1.98
2024-01-17T20:54:42.954Z,1.93
2024-01-17T20:57:12.288Z,1.96
2024-01-17T20:59:40.672Z,2.05
2024-01-17T21:02:07.201Z,2.04
2024-01-17T21:04:33.808Z,2.03
2024-01-17T21:07:00.731Z,2.01
2024-01-17T21:09:27.573Z,2.04
2024-01-17T21:11:54.748Z,2.00
2024-01-17T21:14:21.494Z,1.98
2024-01-17T21:16:49.369Z,2.02
2024-01-17T21:19:15.985Z,1.98
2024-01-17T21:21:42.913Z,1.98
2024-01-17T21:24:09.811Z,2.00
2024-01-17T21:26:39.681Z,2.03
2024-01-17T21:29:07.349Z,1.94
2024-01-17T21:31:37.518Z,1.90
2024-01-17T21:34:07.982Z,1.72
2024-01-17T21:36:35.416Z,1.73
2024-01-17T21:39:04.249Z,1.69
2024-01-17T21:41:31.412Z,1.79
2024-01-17T21:43:57.994Z,1.75
2024-01-17T21:46:25.019Z,1.74
2024-01-17T21:48:51.858Z,1.71
2024-01-17T21:51:20.279Z,1.77
2024-01-17T21:53:47.951Z,1.74
2024-01-17T21:56:14.840Z,1.74
2024-01-17T21:58:41.581Z,1.71
2024-01-17T22:01:09.360Z,1.80
2024-01-17T22:03:37.382Z,1.81
2024-01-17T22:06:05.025Z,1.86
2024-01-17T22:08:44.320Z,1.86
2024-01-17T22:11:18.889Z,1.88
2024-01-17T22:13:45.472Z,1.85
2024-01-17T22:16:12.178Z,1.91
2024-01-17T22:18:38.896Z,1.97
2024-01-17T22:21:05.852Z,2.02
2024-01-17T22:23:33.928Z,2.03
2024-01-17T22:26:00.544Z,2.04
2024-01-17T22:28:27.090Z,2.05
2024-01-17T22:30:53.658Z,2.00
2024-01-17T22:33:20.369Z,1.99
2024-01-17T22:35:47.121Z,1.99
2024-01-17T22:38:13.696Z,2.14
2024-01-17T22:40:42.149Z,2.15
2024-01-17T22:43:08.790Z,2.06
2024-01-17T22:45:35.548Z,2.02
2024-01-17T22:48:04.256Z,1.99
2024-01-17T22:50:33.212Z,1.87
2024-01-17T22:53:03.113Z,1.98
2024-01-17T22:55:30.612Z,1.96
2024-01-17T22:57:58.645Z,2.02
2024-01-17T23:00:27.092Z,2.08
2024-01-17T23:02:54.273Z,2.13
2024-01-17T23:05:22.473Z,2.06
2024-01-17T23:07:57.454Z,2.04
2024-01-17T23:10:32.251Z,1.98
2024-01-17T23:13:00.355Z,2.10
2024-01-17T23:15:27.233Z,2.14
2024-01-17T23:17:54.157Z,2.12
2024-01-17T23:20:20.995Z,2.12
2024-01-17T23:22:47.662Z,2.12
2024-01-17T23:25:14.341Z,2.10
2024-01-17T23:27:40.936Z,2.14
2024-01-17T23:30:09.903Z,2.22
2024-01-17T23:32:36.653Z,2.13
2024-01-17T23:35:03.490Z,2.10
2024-01-17T23:37:30.156Z,2.21
2024-01-17T23:39:56.683Z,2.22
2024-01-17T23:42:23.287Z,2.11
2024-01-17T23:44:50.116Z,2.04
2024-01-17T23:47:18.125Z,2.06
2024-01-17T23:49:44.820Z,2.12
2024-01-17T23:52:11.447Z,2.12
2024-01-17T23:54:38.073Z,2.11
2024-01-17T23:57:05.310Z,2.08
2024-01-17T23:59:31.924Z,2.10
